Time;durP1;ratioP1;P1;durP2;ratioP2;P2;SDS_P1;SDS_P2;PMS_P1;PMS_P2;Temp;Humidity;BMP_temperature;BMP_pressure;BME280_temperature;BME280_humidity;BME280_pressure;Samples;Min_cycle;Max_cycle;Signal;HPM_P1;HPM_P2
2022/06/23 00:00:59;;;;;;;3.67;0.82;;;15.40;99.90;;;;;;5069272;28;20051;-74
2022/06/23 00:03:30;;;;;;;1.92;1.00;;;15.30;99.90;;;;;;5070495;28;20123;-74
2022/06/23 00:05:59;;;;;;;1.67;0.80;;;15.30;99.90;;;;;;5057154;28;20063;-74
2022/06/23 00:08:26;;;;;;;1.77;0.90;;;15.30;99.90;;;;;;5078235;28;20063;-74
2022/06/23 00:10:58;;;;;;;3.33;0.70;;;15.20;99.90;;;;;;5074323;28;20066;-74
2022/06/23 00:13:33;;;;;;;1.65;0.95;;;15.30;99.90;;;;;;5046940;28;20460;-74
2022/06/23 00:15:59;;;;;;;2.35;1.10;;;15.20;99.90;;;;;;5074952;28;20386;-74
2022/06/23 00:18:30;;;;;;;2.30;0.90;;;15.20;99.90;;;;;;5068052;28;20044;-74
2022/06/23 00:21:23;;;;;;;1.73;0.75;;;15.10;99.90;;;;;;5072545;28;20072;-74
2022/06/23 00:23:53;;;;;;;1.45;0.60;;;15.10;99.90;;;;;;5072509;28;20070;-74
2022/06/23 00:26:26;;;;;;;2.03;0.75;;;15.10;99.90;;;;;;5074551;28;20047;-73
2022/06/23 00:29:02;;;;;;;2.53;1.23;;;15.00;99.90;;;;;;5068455;28;20082;-73
2022/06/23 00:31:50;;;;;;;2.72;1.02;;;15.00;99.90;;;;;;5074787;28;20039;-74
2022/06/23 00:34:36;;;;;;;1.88;0.85;;;15.00;99.90;;;;;;5058069;28;20045;-74
2022/06/23 00:37:10;;;;;;;1.47;0.80;;;15.00;99.90;;;;;;5068428;28;20060;-74
2022/06/23 00:39:47;;;;;;;2.38;0.82;;;15.00;99.90;;;;;;5069889;28;20044;-74
2022/06/23 00:42:29;;;;;;;2.03;0.70;;;15.00;99.90;;;;;;5068076;28;20444;-73
2022/06/23 00:45:10;;;;;;;2.05;1.00;;;14.90;99.90;;;;;;5046681;28;20026;-74
2022/06/23 00:47:48;;;;;;;1.02;0.73;;;14.90;99.90;;;;;;5071102;28;20028;-73
2022/06/23 00:50:35;;;;;;;2.42;0.85;;;14.90;99.90;;;;;;5057757;28;20032;-74
2022/06/23 00:53:43;;;;;;;2.58;1.17;;;14.90;99.90;;;;;;5057379;28;20955;-74
2022/06/23 00:56:33;;;;;;;2.53;1.10;;;14.80;99.90;;;;;;5026766;28;20510;-73
2022/06/23 00:59:03;;;;;;;4.60;1.23;;;14.80;99.90;;;;;;5066474;28;20060;-73
2022/06/23 01:01:44;;;;;;;2.67;1.15;;;14.80;99.90;;;;;;5059004;28;20123;-73
2022/06/23 01:04:20;;;;;;;3.15;1.00;;;14.70;99.90;;;;;;5072771;28;20048;-74
2022/06/23 01:06:52;;;;;;;2.55;1.25;;;14.70;99.90;;;;;;5072434;28;20036;-74
2022/06/23 01:09:31;;;;;;;2.53;1.13;;;14.70;99.90;;;;;;5073694;28;20075;-74
2022/06/23 01:12:20;;;;;;;3.42;1.42;;;14.70;99.90;;;;;;5076685;28;20063;-74
2022/06/23 01:15:02;;;;;;;3.13;1.30;;;14.60;99.90;;;;;;5054637;28;20506;-74
2022/06/23 01:17:40;;;;;;;3.08;1.30;;;14.70;99.90;;;;;;5076830;28;20407;-73
2022/06/23 01:20:18;;;;;;;2.80;1.35;;;14.60;99.90;;;;;;5078814;28;20045;-73
2022/06/23 01:23:12;;;;;;;2.80;1.20;;;14.60;99.90;;;;;;5071565;28;20104;-74
2022/06/23 01:26:15;;;;;;;3.42;1.58;;;14.60;99.90;;;;;;5062508;28;20053;-73
2022/06/23 01:28:42;;;;;;;2.47;1.23;;;14.60;99.90;;;;;;5067886;28;20112;-73
2022/06/23 01:31:18;;;;;;;3.00;1.23;;;14.50;99.90;;;;;;5059092;28;20036;-73
2022/06/23 01:33:56;;;;;;;2.67;1.40;;;14.50;99.90;;;;;;5074063;28;20489;-73
2022/06/23 01:36:34;;;;;;;3.25;1.42;;;14.40;99.90;;;;;;5047937;28;20094;-73
2022/06/23 01:39:06;;;;;;;4.35;1.80;;;14.40;99.90;;;;;;5072926;28;20036;-73
2022/06/23 01:41:58;;;;;;;4.47;1.55;;;14.40;99.90;;;;;;5067774;28;20044;-73
2022/06/23 01:44:46;;;;;;;2.78;1.13;;;14.40;99.90;;;;;;5051042;28;20400;-74
2022/06/23 01:47:28;;;;;;;5.28;1.95;;;14.30;99.90;;;;;;5068939;28;20116;-73
2022/06/23 01:50:03;;;;;;;3.35;1.67;;;14.30;99.90;;;;;;5061822;28;20076;-73
2022/06/23 01:52:29;;;;;;;2.17;1.10;;;14.30;99.90;;;;;;5072549;28;20043;-74
2022/06/23 01:55:13;;;;;;;5.28;2.75;;;14.30;99.90;;;;;;5065626;28;20397;-73
2022/06/23 01:57:48;;;;;;;2.95;1.42;;;14.30;99.90;;;;;;5069740;28;20090;-73
2022/06/23 02:00:22;;;;;;;3.50;1.70;;;14.30;99.90;;;;;;5061928;28;20033;-73
2022/06/23 02:03:19;;;;;;;2.50;1.20;;;14.30;99.90;;;;;;5074425;28;20067;-74
2022/06/23 02:06:13;;;;;;;3.65;1.67;;;14.30;99.90;;;;;;5076962;28;20044;-73
2022/06/23 02:09:12;;;;;;;3.22;1.40;;;14.30;99.90;;;;;;5082031;28;20040;-73
2022/06/23 02:11:43;;;;;;;3.42;1.35;;;14.30;99.90;;;;;;5074488;28;20044;-73
2022/06/23 02:14:41;;;;;;;2.58;1.27;;;14.30;99.90;;;;;;5075892;28;20043;-74
2022/06/23 02:17:25;;;;;;;3.88;1.55;;;14.30;99.90;;;;;;5067392;28;20491;-73
2022/06/23 02:19:54;;;;;;;9.38;1.67;;;14.30;99.90;;;;;;5078284;28;20055;-73
2022/06/23 02:22:42;;;;;;;5.65;2.17;;;14.30;99.90;;;;;;5070621;28;20413;-73
2022/06/23 02:25:21;;;;;;;3.90;2.00;;;14.30;99.90;;;;;;5075180;28;20524;-73
2022/06/23 02:27:49;;;;;;;5.00;1.85;;;14.30;99.90;;;;;;5075681;28;20048;-73
2022/06/23 02:30:27;;;;;;;5.70;1.50;;;14.20;99.90;;;;;;5070895;28;20169;-73
2022/06/23 02:33:23;;;;;;;3.72;1.40;;;14.20;99.90;;;;;;5075277;28;20044;-74
2022/06/23 02:36:14;;;;;;;;;;;14.20;99.90;;;;;;5075778;28;20089;-73
2022/06/23 02:38:48;;;;;;;2.95;1.55;;;14.20;99.90;;;;;;5078227;28;19923;-73
2022/06/23 02:41:32;;;;;;;4.15;2.08;;;14.20;99.90;;;;;;5079155;28;20035;-73
2022/06/23 02:44:13;;;;;;;3.67;1.70;;;14.20;99.90;;;;;;5077218;28;20132;-74
2022/06/23 02:47:07;;;;;;;4.63;2.15;;;14.10;99.90;;;;;;5069610;28;20043;-74
2022/06/23 02:50:02;;;;;;;3.97;1.67;;;14.10;99.90;;;;;;5062312;28;20040;-73
2022/06/23 02:52:58;;;;;;;3.63;1.83;;;14.10;99.90;;;;;;5069441;28;20118;-73
2022/06/23 02:55:40;;;;;;;;;;;14.10;99.90;;;;;;5059933;28;20033;-73
2022/06/23 02:58:12;;;;;;;4.25;1.75;;;14.10;99.90;;;;;;5067802;28;19924;-73
2022/06/23 03:00:57;;;;;;;4.65;1.95;;;14.10;99.90;;;;;;5074127;28;20097;-73
2022/06/23 03:03:34;;;;;;;6.75;1.70;;;14.10;99.90;;;;;;5075463;28;20044;-73
2022/06/23 03:06:43;;;;;;;3.70;1.75;;;14.10;99.90;;;;;;5072295;28;20060;-74
2022/06/23 03:09:29;;;;;;;3.78;1.90;;;14.10;99.90;;;;;;5057863;28;20058;-74
2022/06/23 03:12:20;;;;;;;4.38;2.20;;;14.10;99.90;;;;;;5061868;28;20067;-74
2022/06/23 03:15:01;;;;;;;3.40;1.77;;;14.10;99.90;;;;;;5062235;28;20123;-73
2022/06/23 03:17:32;;;;;;;4.80;2.00;;;14.10;99.90;;;;;;5082243;28;20076;-73
2022/06/23 03:20:13;;;;;;;3.92;1.60;;;14.00;99.90;;;;;;5091994;28;20490;-73
2022/06/23 03:22:48;;;;;;;4.00;1.88;;;14.00;99.90;;;;;;5069412;28;20690;-73
2022/06/23 03:25:25;;;;;;;4.47;2.00;;;14.00;99.90;;;;;;5071472;28;20036;-73
2022/06/23 03:27:51;;;;;;;3.67;1.65;;;14.10;99.90;;;;;;5077096;28;20040;-73
2022/06/23 03:30:30;;;;;;;4.72;2.15;;;14.00;99.90;;;;;;5055581;28;20048;-73
2022/06/23 03:33:03;;;;;;;2.83;1.73;;;14.00;99.90;;;;;;5069692;28;20040;-74
2022/06/23 03:35:48;;;;;;;3.50;1.40;;;14.00;99.90;;;;;;5081629;28;20089;-73
2022/06/23 03:41:37;;;;;;;4.80;2.05;;;14.00;99.90;;;;;;5078659;28;20046;-73
2022/06/23 03:44:15;;;;;;;4.88;1.88;;;14.00;99.90;;;;;;5052564;28;20045;-73
2022/06/23 03:46:51;;;;;;;3.78;1.52;;;14.10;99.90;;;;;;5055120;28;20040;-73
2022/06/23 03:49:32;;;;;;;5.93;2.08;;;14.00;99.90;;;;;;5075636;28;20054;-73
2022/06/23 03:52:02;;;;;;;5.10;2.58;;;14.00;99.90;;;;;;5068087;28;20045;-73
2022/06/23 03:54:34;;;;;;;4.78;2.38;;;14.00;99.90;;;;;;5072109;28;20047;-74
2022/06/23 03:57:07;;;;;;;4.53;1.98;;;14.00;99.90;;;;;;5072021;28;20046;-73
2022/06/23 03:59:54;;;;;;;4.50;1.80;;;14.00;99.90;;;;;;5063183;28;20043;-73
2022/06/23 04:02:25;;;;;;;4.55;2.03;;;14.00;99.90;;;;;;5063969;28;20032;-73
2022/06/23 04:05:05;;;;;;;4.22;2.00;;;14.00;99.90;;;;;;5063463;28;20067;-73
2022/06/23 04:07:41;;;;;;;5.85;1.77;;;14.00;99.90;;;;;;5065799;28;20062;-74
2022/06/23 04:10:14;;;;;;;3.88;1.90;;;13.90;99.90;;;;;;5073952;28;20749;-74
2022/06/23 04:12:48;;;;;;;4.70;2.15;;;14.00;99.90;;;;;;5071600;28;20044;-74
2022/06/23 04:15:24;;;;;;;6.65;2.30;;;14.00;99.90;;;;;;5070985;28;20036;-73
2022/06/23 04:17:55;;;;;;;;;;;14.00;99.90;;;;;;5056729;28;20052;-73
2022/06/23 04:20:32;;;;;;;3.72;1.65;;;14.00;99.90;;;;;;5067764;28;19966;-74
2022/06/23 04:23:01;;;;;;;4.50;1.83;;;14.00;99.90;;;;;;5075253;28;20843;-73
2022/06/23 04:25:57;;;;;;;4.18;2.00;;;14.00;99.90;;;;;;5068797;28;20481;-73
2022/06/23 04:28:57;;;;;;;5.35;2.17;;;14.00;99.90;;;;;;5069860;28;20493;-73
2022/06/23 04:31:36;;;;;;;3.95;1.98;;;14.10;99.90;;;;;;5083453;28;20050;-74
2022/06/23 04:34:02;;;;;;;4.82;2.03;;;14.10;99.90;;;;;;5070256;28;20124;-74
2022/06/23 04:36:33;;;;;;;4.03;1.73;;;14.10;99.90;;;;;;5070442;28;20032;-73
2022/06/23 04:39:07;;;;;;;5.13;2.38;;;14.10;99.90;;;;;;5054161;28;20075;-73
2022/06/23 04:41:48;;;;;;;6.53;2.38;;;14.20;99.90;;;;;;5070689;28;20521;-74
2022/06/23 04:44:22;;;;;;;5.43;2.13;;;14.30;99.90;;;;;;5056638;28;20045;-74
2022/06/23 04:46:54;;;;;;;3.55;1.70;;;14.30;99.90;;;;;;5075936;28;20035;-73
2022/06/23 04:49:36;;;;;;;4.68;2.10;;;14.30;99.90;;;;;;5073159;28;20656;-73
2022/06/23 04:52:16;;;;;;;4.38;2.08;;;14.30;99.90;;;;;;5065785;28;20044;-73
2022/06/23 04:55:04;;;;;;;4.25;2.08;;;14.40;99.90;;;;;;5070591;28;20079;-73
2022/06/23 04:57:53;;;;;;;4.70;2.28;;;14.40;99.90;;;;;;5066451;28;20179;-73
2022/06/23 05:00:27;;;;;;;4.40;2.45;;;14.50;99.90;;;;;;5071244;28;20093;-73
2022/06/23 05:02:57;;;;;;;4.28;2.13;;;14.50;99.90;;;;;;5070948;28;20044;-73
2022/06/23 05:05:32;;;;;;;4.78;2.38;;;14.50;99.90;;;;;;5070228;28;20040;-73
2022/06/23 05:08:16;;;;;;;3.80;1.83;;;14.60;99.90;;;;;;5077232;28;20721;-73
2022/06/23 05:11:15;;;;;;;4.53;2.35;;;14.60;99.90;;;;;;5057263;28;20461;-74
2022/06/23 05:13:47;;;;;;;4.07;1.70;;;14.70;99.90;;;;;;5065887;28;20079;-73
2022/06/23 05:16:24;;;;;;;4.72;2.35;;;14.70;99.90;;;;;;5071358;28;20595;-74
2022/06/23 05:18:52;;;;;;;4.78;2.20;;;14.70;99.90;;;;;;5065887;28;20049;-73
2022/06/23 05:21:25;;;;;;;3.65;1.90;;;14.70;99.90;;;;;;5076770;28;20070;-73
2022/06/23 05:23:59;;;;;;;6.13;2.33;;;14.70;99.90;;;;;;5053401;28;20078;-73
2022/06/23 05:26:30;;;;;;;4.53;2.60;;;14.70;99.90;;;;;;5069470;28;20050;-73
2022/06/23 05:29:03;;;;;;;5.32;2.50;;;14.80;99.90;;;;;;5069499;28;20037;-73
2022/06/23 05:31:33;;;;;;;5.28;2.35;;;14.80;99.90;;;;;;5073273;28;20056;-73
2022/06/23 05:34:11;;;;;;;4.05;1.92;;;14.80;99.90;;;;;;5066258;28;20485;-73
2022/06/23 05:37:12;;;;;;;3.65;1.98;;;14.80;99.90;;;;;;5073931;28;20132;-73
2022/06/23 05:39:49;;;;;;;6.20;2.55;;;14.90;99.90;;;;;;5045909;28;20059;-73
2022/06/23 05:42:21;;;;;;;7.05;2.40;;;14.90;99.90;;;;;;5046825;28;20116;-73
2022/06/23 05:44:51;;;;;;;5.22;2.50;;;15.00;99.90;;;;;;5067878;28;20052;-74
2022/06/23 05:47:18;;;;;;;5.18;2.45;;;15.00;99.90;;;;;;5076905;28;20044;-73
2022/06/23 05:49:50;;;;;;;9.77;3.17;;;15.00;99.90;;;;;;5061065;28;20623;-74
2022/06/23 05:52:25;;;;;;;4.70;2.47;;;15.10;99.90;;;;;;5054080;28;20440;-73
2022/06/23 05:55:19;;;;;;;8.07;2.90;;;15.10;99.90;;;;;;5064434;28;20039;-73
2022/06/23 05:57:57;;;;;;;5.30;2.58;;;15.20;99.90;;;;;;5072699;28;20044;-73
2022/06/23 06:00:36;;;;;;;6.28;2.65;;;15.20;99.90;;;;;;5075190;28;20020;-73
2022/06/23 06:03:15;;;;;;;4.53;2.40;;;15.20;99.90;;;;;;5057410;28;20043;-73
2022/06/23 06:05:47;;;;;;;5.28;2.55;;;15.20;99.90;;;;;;5077224;28;20048;-74
2022/06/23 06:08:28;;;;;;;4.75;2.63;;;15.30;99.90;;;;;;5078950;28;20036;-73
2022/06/23 06:10:55;;;;;;;6.72;2.50;;;15.30;99.90;;;;;;5058138;28;20047;-72
2022/06/23 06:13:35;;;;;;;5.72;2.83;;;15.40;99.90;;;;;;5068068;28;20044;-69
2022/06/23 06:16:04;;;;;;;5.13;2.72;;;15.50;99.90;;;;;;5055419;28;20918;-74
2022/06/23 06:18:41;;;;;;;6.30;2.92;;;15.50;99.90;;;;;;5056132;28;20036;-73
2022/06/23 06:21:09;;;;;;;6.82;2.85;;;15.60;99.90;;;;;;5089157;28;20051;-74
2022/06/23 06:23:59;;;;;;;4.45;2.13;;;15.70;99.90;;;;;;5056316;28;20037;-73
2022/06/23 06:26:39;;;;;;;5.55;2.70;;;15.80;99.90;;;;;;5075842;28;20092;-73
2022/06/23 06:29:29;;;;;;;5.85;3.05;;;15.80;99.90;;;;;;5070906;28;20037;-73
2022/06/23 06:32:19;;;;;;;4.05;2.25;;;15.90;99.90;;;;;;5064928;28;20052;-73
2022/06/23 06:34:50;;;;;;;5.07;2.80;;;16.10;99.90;;;;;;5071962;28;20056;-73
2022/06/23 06:37:18;;;;;;;4.95;2.50;;;17.20;99.90;;;;;;5059049;28;20040;-73
2022/06/23 06:39:50;;;;;;;5.32;2.85;;;18.80;99.90;;;;;;5071081;28;20075;-77
2022/06/23 06:42:26;;;;;;;4.88;2.45;;;20.20;99.90;;;;;;5070902;28;20068;-73
2022/06/23 06:44:55;;;;;;;5.18;2.42;;;21.50;97.30;;;;;;5067101;28;20230;-73
2022/06/23 06:47:26;;;;;;;5.20;2.45;;;22.60;95.30;;;;;;5064368;28;20676;-73
2022/06/23 06:49:54;;;;;;;4.10;2.40;;;23.50;93.10;;;;;;5068907;28;20479;-74
2022/06/23 06:52:20;;;;;;;4.35;2.00;;;24.10;92.00;;;;;;5062852;28;20033;-73
2022/06/23 06:54:56;;;;;;;4.47;2.13;;;24.00;92.50;;;;;;5070356;28;20097;-74
2022/06/23 06:57:42;;;;;;;4.32;2.47;;;23.50;94.00;;;;;;5073653;28;20039;-73
2022/06/23 07:00:18;;;;;;;4.28;2.60;;;22.70;93.80;;;;;;5067031;28;20040;-74
2022/06/23 07:03:09;;;;;;;4.30;2.17;;;22.00;97.60;;;;;;5076342;28;20047;-74
2022/06/23 07:05:49;;;;;;;4.85;2.72;;;21.40;98.60;;;;;;5050163;28;20043;-73
2022/06/23 07:08:31;;;;;;;4.43;2.15;;;20.90;99.10;;;;;;5065575;28;20103;-74
2022/06/23 07:11:06;;;;;;;3.78;2.10;;;20.50;99.90;;;;;;5068108;28;20044;-73
2022/06/23 07:13:49;;;;;;;4.22;2.38;;;20.10;99.90;;;;;;5069328;28;20041;-73
2022/06/23 07:16:23;;;;;;;5.05;2.58;;;19.90;99.90;;;;;;5050317;28;20593;-73
2022/06/23 07:19:15;;;;;;;3.92;2.38;;;19.70;99.90;;;;;;5067382;28;20052;-73
2022/06/23 07:21:50;;;;;;;3.60;2.22;;;19.50;99.90;;;;;;5050301;28;20033;-73
2022/06/23 07:24:21;;;;;;;5.90;2.38;;;19.50;99.90;;;;;;5085318;28;20560;-73
2022/06/23 07:26:59;;;;;;;2.97;1.75;;;19.40;99.90;;;;;;5074585;28;20051;-73
2022/06/23 07:29:40;;;;;;;4.22;2.15;;;19.30;99.90;;;;;;5062990;28;20130;-73
2022/06/23 07:32:18;;;;;;;3.35;1.70;;;19.10;99.90;;;;;;5065321;28;20135;-73
2022/06/23 07:34:49;;;;;;;3.70;2.20;;;19.10;99.90;;;;;;5055225;28;20057;-74
2022/06/23 07:37:29;;;;;;;3.92;2.33;;;19.10;99.90;;;;;;5075034;28;20097;-73
2022/06/23 07:40:04;;;;;;;4.68;2.10;;;19.10;99.90;;;;;;5069640;28;20037;-73
2022/06/23 07:42:59;;;;;;;4.63;2.10;;;19.00;99.90;;;;;;5069242;28;20069;-73
2022/06/23 07:45:48;;;;;;;4.90;1.88;;;19.00;99.90;;;;;;5053180;28;20489;-73
2022/06/23 07:48:14;;;;;;;3.60;1.88;;;18.90;99.90;;;;;;5076157;28;20052;-73
2022/06/23 07:50:40;;;;;;;4.38;2.25;;;18.90;99.90;;;;;;5054755;28;20041;-73
2022/06/23 07:53:10;;;;;;;4.22;1.88;;;19.00;99.90;;;;;;5062562;28;20080;-76
2022/06/23 07:55:42;;;;;;;3.65;1.80;;;19.00;99.90;;;;;;5059471;28;20075;-74
2022/06/23 07:58:08;;;;;;;3.45;1.90;;;19.00;99.90;;;;;;5059199;28;20060;-73
2022/06/23 08:00:40;;;;;;;6.38;2.08;;;19.00;99.90;;;;;;5050497;28;20076;-74
2022/06/23 08:03:22;;;;;;;4.28;2.08;;;19.20;99.90;;;;;;5058793;28;20048;-73
2022/06/23 08:05:59;;;;;;;4.22;1.77;;;19.20;99.90;;;;;;5053569;28;20048;-73
2022/06/23 08:08:29;;;;;;;3.85;2.30;;;19.20;99.90;;;;;;5067158;28;20044;-74
2022/06/23 08:13:47;;;;;;;3.25;1.85;;;19.30;99.90;;;;;;5051840;28;20072;-73
2022/06/23 08:19:29;;;;;;;3.38;1.40;;;19.40;99.90;;;;;;5062898;28;20056;-73
2022/06/23 08:22:10;;;;;;;2.80;1.80;;;19.40;99.90;;;;;;5049825;28;20033;-73
2022/06/23 08:24:37;;;;;;;2.95;1.60;;;19.50;99.90;;;;;;5070357;28;20563;-70
2022/06/23 08:27:09;;;;;;;8.32;2.10;;;19.60;99.90;;;;;;5036679;28;20035;-71
2022/06/23 08:29:52;;;;;;;3.28;1.55;;;19.60;99.90;;;;;;5059872;28;20475;-72
2022/06/23 08:32:17;;;;;;;3.30;1.70;;;19.70;99.90;;;;;;5047676;28;20102;-71
2022/06/23 08:35:04;;;;;;;4.38;1.60;;;19.70;99.90;;;;;;5060593;28;20039;-71
2022/06/23 08:37:54;;;;;;;2.38;1.63;;;19.70;99.90;;;;;;5063098;28;20087;-71
2022/06/23 08:40:34;;;;;;;3.17;1.60;;;19.80;99.90;;;;;;5064748;28;20040;-73
2022/06/23 08:43:35;;;;;;;3.75;1.75;;;19.90;99.90;;;;;;5077389;28;22507;-73
2022/06/23 08:46:17;;;;;;;2.67;1.63;;;20.00;99.90;;;;;;5070123;28;20881;-73
2022/06/23 08:49:08;;;;;;;3.42;1.42;;;20.10;99.90;;;;;;5071668;28;20039;-74
2022/06/23 08:52:03;;;;;;;3.53;1.70;;;20.10;99.70;;;;;;5067175;28;20059;-73
2022/06/23 08:54:47;;;;;;;3.58;1.70;;;20.20;98.70;;;;;;5065293;28;20048;-74
2022/06/23 08:57:40;;;;;;;2.92;1.42;;;20.20;98.10;;;;;;5061773;28;20049;-73
2022/06/23 09:00:45;;;;;;;2.28;1.08;;;20.30;99.10;;;;;;5059816;28;20028;-72
2022/06/23 09:03:19;;;;;;;4.45;1.80;;;20.30;95.20;;;;;;5057558;28;20141;-71
2022/06/23 09:06:20;;;;;;;2.72;1.50;;;20.40;98.10;;;;;;5063876;28;20126;-72
2022/06/23 09:09:19;;;;;;;4.22;1.80;;;20.50;97.80;;;;;;5051724;28;20139;-71
2022/06/23 09:11:56;;;;;;;4.88;1.90;;;20.60;97.60;;;;;;5037714;28;20051;-71
2022/06/23 09:14:58;;;;;;;3.40;1.20;;;20.60;98.10;;;;;;5055236;28;20632;-72
2022/06/23 09:17:27;;;;;;;2.40;1.50;;;20.70;97.10;;;;;;5058661;28;20072;-72
2022/06/23 09:20:06;;;;;;;3.10;1.73;;;20.80;97.60;;;;;;5047685;28;20036;-74
2022/06/23 09:22:50;;;;;;;2.45;1.40;;;20.80;97.20;;;;;;5053553;28;20517;-74
2022/06/23 09:25:47;;;;;;;2.65;1.20;;;20.80;97.40;;;;;;5036862;28;20483;-74
2022/06/23 09:28:16;;;;;;;2.10;1.23;;;20.90;95.50;;;;;;5058321;28;20494;-74
2022/06/23 09:30:48;;;;;;;2.67;1.30;;;21.00;96.20;;;;;;5036253;28;20028;-73
2022/06/23 09:33:29;;;;;;;3.38;1.38;;;21.00;96.30;;;;;;5049004;28;20082;-72
2022/06/23 09:36:06;;;;;;;3.15;1.40;;;21.10;96.50;;;;;;5069929;28;20036;-73
2022/06/23 09:39:02;;;;;;;2.33;1.35;;;21.20;95.10;;;;;;5045556;28;20065;-73
2022/06/23 09:41:30;;;;;;;;;;;21.30;93.20;;;;;;5058740;28;20038;-73
2022/06/23 09:44:24;;;;;;;1.70;0.98;;;21.30;92.20;;;;;;5073017;28;20394;-73
2022/06/23 09:47:13;;;;;;;2.13;1.10;;;21.40;93.60;;;;;;5066690;28;20045;-73
2022/06/23 09:50:03;;;;;;;4.53;1.70;;;21.40;94.20;;;;;;5056245;28;20044;-73
2022/06/23 09:52:52;;;;;;;2.42;1.40;;;21.50;94.20;;;;;;5057240;28;20056;-73
2022/06/23 09:55:25;;;;;;;2.30;1.30;;;21.50;94.10;;;;;;5056569;28;20178;-73
2022/06/23 09:58:28;;;;;;;1.70;0.95;;;21.60;92.70;;;;;;5064149;28;20439;-73
2022/06/23 10:01:28;;;;;;;2.20;1.20;;;21.60;92.50;;;;;;5060497;28;20497;-73
2022/06/23 10:04:27;;;;;;;2.13;1.00;;;21.70;93.00;;;;;;5066594;28;20044;-73
2022/06/23 10:07:15;;;;;;;1.70;0.90;;;21.80;91.50;;;;;;5055620;28;20036;-74
2022/06/23 10:09:57;;;;;;;2.10;1.23;;;21.90;92.40;;;;;;5053272;28;20058;-73
2022/06/23 10:12:37;;;;;;;2.08;1.20;;;22.00;91.60;;;;;;5056700;28;20041;-74
2022/06/23 10:15:12;;;;;;;2.20;1.25;;;22.10;91.60;;;;;;5054693;28;20045;-72
2022/06/23 10:17:51;;;;;;;2.17;1.43;;;22.20;92.50;;;;;;5058865;28;20061;-74
2022/06/23 10:20:43;;;;;;;1.95;1.20;;;22.20;91.50;;;;;;5059769;28;20592;-73
2022/06/23 10:23:08;;;;;;;4.20;1.33;;;22.30;91.50;;;;;;5064898;28;20075;-74
2022/06/23 10:26:03;;;;;;;1.38;0.90;;;22.30;92.40;;;;;;5050478;28;20123;-74
2022/06/23 10:28:57;;;;;;;1.80;1.20;;;22.40;91.90;;;;;;5054014;28;20517;-73
2022/06/23 10:31:51;;;;;;;4.05;1.30;;;22.50;87.20;;;;;;5054413;28;20052;-74
2022/06/23 10:34:39;;;;;;;1.50;1.00;;;22.50;88.20;;;;;;5057933;28;20044;-73
2022/06/23 10:37:22;;;;;;;2.25;1.40;;;22.60;88.50;;;;;;5067691;28;20169;-73
2022/06/23 10:40:19;;;;;;;1.98;1.25;;;22.60;89.10;;;;;;5045077;28;20037;-73
2022/06/23 10:43:08;;;;;;;1.77;1.20;;;22.70;90.20;;;;;;5061360;28;20407;-73
2022/06/23 10:46:01;;;;;;;2.75;1.33;;;22.80;88.30;;;;;;5049671;28;20472;-74
2022/06/23 10:48:42;;;;;;;1.85;0.95;;;22.90;83.60;;;;;;5056332;28;20065;-74
2022/06/23 10:51:19;;;;;;;1.55;0.88;;;22.90;89.80;;;;;;5057733;28;20071;-74
2022/06/23 10:54:06;;;;;;;1.83;0.98;;;22.90;89.80;;;;;;5055945;28;20651;-74
2022/06/23 10:57:17;;;;;;;1.73;1.10;;;23.00;87.90;;;;;;5056387;28;20041;-73
2022/06/23 11:00:07;;;;;;;2.25;1.13;;;23.00;84.80;;;;;;5057008;28;20055;-73
2022/06/23 11:02:41;;;;;;;1.77;1.00;;;23.10;84.20;;;;;;5061702;28;20041;-74
2022/06/23 11:05:31;;;;;;;2.00;1.02;;;23.20;82.70;;;;;;5066378;28;20040;-73
2022/06/23 11:08:10;;;;;;;2.65;1.23;;;23.20;84.00;;;;;;5049945;28;20048;-74
2022/06/23 11:11:14;;;;;;;1.67;1.00;;;23.20;85.60;;;;;;5063083;28;20609;-73
2022/06/23 11:14:05;;;;;;;3.15;1.02;;;23.30;81.60;;;;;;5051153;28;20224;-73
2022/06/23 11:17:09;;;;;;;2.65;1.15;;;23.30;79.60;;;;;;5061635;28;20519;-74
2022/06/23 11:19:59;;;;;;;2.15;0.98;;;23.40;80.00;;;;;;5055932;28;20564;-74
2022/06/23 11:22:32;;;;;;;2.10;1.00;;;23.50;82.30;;;;;;5061130;28;20037;-73
2022/06/23 11:25:09;;;;;;;1.33;0.85;;;23.50;83.90;;;;;;5041769;28;20449;-73
2022/06/23 11:28:04;;;;;;;1.55;0.95;;;23.60;82.80;;;;;;5057995;28;20498;-74
2022/06/23 11:31:04;;;;;;;1.63;1.17;;;23.60;79.10;;;;;;5059645;28;20044;-74
2022/06/23 11:34:00;;;;;;;4.32;1.38;;;23.70;78.90;;;;;;5049332;28;20394;-75
2022/06/23 11:36:57;;;;;;;1.80;1.30;;;23.40;99.90;;;;;;5049741;28;20040;-70
2022/06/23 11:39:47;;;;;;;3.50;1.20;;;22.40;99.90;;;;;;5039662;28;20120;-71
2022/06/23 11:42:34;;;;;;;2.45;1.20;;;21.60;99.90;;;;;;5054678;28;20553;-71
2022/06/23 11:45:34;;;;;;;3.83;1.20;;;21.00;99.90;;;;;;5038992;28;20103;-70
2022/06/23 11:48:35;;;;;;;2.47;1.40;;;20.70;99.90;;;;;;5057884;28;20051;-72
2022/06/23 11:51:30;;;;;;;1.60;1.00;;;20.50;99.90;;;;;;5068740;28;20465;-71
2022/06/23 11:54:20;;;;;;;1.90;1.10;;;20.40;99.90;;;;;;5034404;28;20037;-70
2022/06/23 11:56:48;;;;;;;1.88;1.20;;;20.40;99.90;;;;;;5056218;28;20043;-72
2022/06/23 11:59:22;;;;;;;2.55;1.20;;;20.50;99.90;;;;;;5045915;28;20033;-72
2022/06/23 12:01:48;;;;;;;3.55;1.10;;;20.50;99.90;;;;;;5062386;28;20063;-72
2022/06/23 12:04:30;;;;;;;3.17;1.20;;;20.70;99.90;;;;;;5063419;28;20044;-73
2022/06/23 12:07:14;;;;;;;1.48;0.95;;;20.80;99.90;;;;;;5042074;28;20040;-73
2022/06/23 12:09:59;;;;;;;1.55;1.00;;;21.00;99.90;;;;;;5047906;28;21885;-72
2022/06/23 12:12:24;;;;;;;1.60;1.10;;;21.20;99.90;;;;;;5055635;28;20073;-72
2022/06/23 12:14:53;;;;;;;2.22;1.27;;;21.60;99.90;;;;;;5037666;28;20066;-72
2022/06/23 12:17:22;;;;;;;1.95;0.95;;;21.90;99.90;;;;;;5063514;28;20483;-73
2022/06/23 12:20:19;;;;;;;0.98;0.60;;;22.20;98.00;;;;;;5067962;28;20049;-73
2022/06/23 12:22:57;;;;;;;2.55;0.93;;;22.50;95.20;;;;;;5048133;28;20043;-72
2022/06/23 12:25:42;;;;;;;1.75;1.10;;;22.80;95.20;;;;;;5066444;28;20056;-72
2022/06/23 12:28:30;;;;;;;2.15;1.05;;;23.20;92.60;;;;;;5047486;28;20037;-73
2022/06/23 12:31:35;;;;;;;2.95;0.98;;;23.50;92.00;;;;;;5063869;28;20517;-73
2022/06/23 12:34:33;;;;;;;1.63;1.02;;;23.60;89.70;;;;;;5042982;28;20050;-72
2022/06/23 12:37:23;;;;;;;1.33;0.95;;;23.70;90.20;;;;;;5046923;28;20037;-72
2022/06/23 12:39:55;;;;;;;2.05;1.20;;;23.90;86.70;;;;;;5052895;28;20040;-72
2022/06/23 12:42:45;;;;;;;1.70;1.05;;;24.00;90.60;;;;;;5056097;28;20041;-72
2022/06/23 12:45:49;;;;;;;1.92;1.08;;;24.10;89.70;;;;;;5054604;28;20036;-73
2022/06/23 12:48:30;;;;;;;1.90;1.10;;;24.20;83.90;;;;;;5052632;28;20041;-71
2022/06/23 12:51:04;;;;;;;2.33;1.13;;;24.20;88.70;;;;;;5058042;28;20044;-72
2022/06/23 12:53:37;;;;;;;2.10;1.08;;;24.40;85.50;;;;;;5059490;28;20110;-72
2022/06/23 12:56:32;;;;;;;2.53;1.00;;;24.40;87.50;;;;;;5059267;28;20500;-72
2022/06/23 12:59:11;;;;;;;3.92;1.15;;;24.60;82.40;;;;;;5056526;28;20619;-72
2022/06/23 13:01:47;;;;;;;1.60;1.10;;;24.70;84.10;;;;;;5031402;28;20077;-73
2022/06/23 13:04:25;;;;;;;1.63;1.15;;;24.80;82.90;;;;;;5057316;28;20041;-73
2022/06/23 13:07:31;;;;;;;1.50;1.00;;;24.90;83.40;;;;;;5032306;28;20048;-72
2022/06/23 13:10:32;;;;;;;1.77;1.00;;;25.00;77.10;;;;;;5057193;28;20073;-73
2022/06/23 13:13:06;;;;;;;1.33;0.93;;;25.10;77.40;;;;;;5071973;28;21073;-73
2022/06/23 13:16:15;;;;;;;2.25;1.23;;;25.10;85.20;;;;;;5053368;28;20033;-72
2022/06/23 13:18:47;;;;;;;1.77;1.00;;;25.20;75.60;;;;;;5057768;28;20045;-72
2022/06/23 13:21:16;;;;;;;1.98;0.95;;;25.30;82.30;;;;;;5057415;28;20120;-72
2022/06/23 13:24:02;;;;;;;1.80;1.08;;;25.30;84.30;;;;;;5060871;28;20052;-72
2022/06/23 13:26:39;;;;;;;2.00;1.20;;;25.30;75.10;;;;;;5057219;28;20047;-73
2022/06/23 13:29:23;;;;;;;1.60;1.08;;;25.40;78.00;;;;;;5032697;28;20037;-72
2022/06/23 13:32:10;;;;;;;2.73;0.97;;;25.40;76.60;;;;;;5055911;28;20398;-73
2022/06/23 13:34:53;;;;;;;2.55;1.10;;;25.40;72.30;;;;;;5070942;28;20475;-73
2022/06/23 13:37:27;;;;;;;2.30;1.27;;;25.60;73.20;;;;;;5054454;28;20187;-73
2022/06/23 13:39:56;;;;;;;2.33;1.27;;;25.60;74.70;;;;;;5029826;28;20128;-72
2022/06/23 13:42:30;;;;;;;0.88;0.80;;;25.60;80.20;;;;;;5059554;28;20044;-73
2022/06/23 13:45:18;;;;;;;1.63;0.98;;;25.60;78.10;;;;;;5056521;28;20127;-73
2022/06/23 13:47:58;;;;;;;1.67;0.95;;;25.70;75.60;;;;;;5053999;28;20040;-73
2022/06/23 13:50:43;;;;;;;1.15;0.80;;;25.70;75.30;;;;;;5054303;28;20039;-73
2022/06/23 13:53:18;;;;;;;3.38;1.00;;;25.90;74.40;;;;;;5058468;28;20552;-73
2022/06/23 13:55:48;;;;;;;1.30;0.98;;;25.90;75.60;;;;;;5054539;28;20157;-73
2022/06/23 13:58:28;;;;;;;1.08;0.90;;;25.90;79.70;;;;;;5057109;28;20063;-73
2022/06/23 14:01:34;;;;;;;1.67;1.10;;;25.90;76.80;;;;;;5052711;28;20044;-73
2022/06/23 14:04:07;;;;;;;2.28;1.13;;;26.00;68.30;;;;;;5037489;28;20041;-73
2022/06/23 14:06:40;;;;;;;1.85;1.20;;;26.10;77.60;;;;;;5061482;28;20494;-73
2022/06/23 14:09:27;;;;;;;2.45;1.15;;;26.10;75.10;;;;;;5055247;28;20500;-73